Time;durP1;ratioP1;P1;durP2;ratioP2;P2;SDS_P1;SDS_P2;PMS_P1;PMS_P2;Temp;Humidity;BMP_temperature;BMP_pressure;BME280_temperature;BME280_humidity;BME280_pressure;Samples;Min_cycle;Max_cycle;Signal;HPM_P1;HPM_P2
2022/11/24 00:00:29;;;;;;;;;;;6.30;99.90;;;;;;5043536;28;19952;-69
2022/11/24 00:02:55;;;;;;;;;;;6.30;99.90;;;;;;5043280;28;20018;-69
2022/11/24 00:05:22;;;;;;;;;;;6.30;99.90;;;;;;5042799;28;19986;-69
2022/11/24 00:07:49;;;;;;;;;;;6.30;99.90;;;;;;5043195;28;19963;-69
2022/11/24 00:10:16;;;;;;;;;;;6.30;99.90;;;;;;5043216;28;19988;-69
2022/11/24 00:12:42;;;;;;;;;;;6.30;99.90;;;;;;5043156;28;19980;-69
2022/11/24 00:15:10;;;;;;;;;;;6.40;99.90;;;;;;5043679;28;19985;-70
2022/11/24 00:17:37;;;;;;;;;;;6.30;99.90;;;;;;5045838;28;20276;-69
2022/11/24 00:20:04;;;;;;;;;;;6.40;99.90;;;;;;5028712;28;20032;-69
2022/11/24 00:22:31;;;;;;;;;;;6.30;99.90;;;;;;5027003;28;19993;-69
2022/11/24 00:24:57;;;;;;;;;;;6.40;99.90;;;;;;5026592;28;20196;-69
2022/11/24 00:27:24;;;;;;;;;;;6.40;99.90;;;;;;5026860;28;19989;-69
2022/11/24 00:29:50;;;;;;;;;;;6.40;99.90;;;;;;5026347;28;20012;-69
2022/11/24 00:32:18;;;;;;;;;;;6.40;99.90;;;;;;5026631;28;19952;-69
2022/11/24 00:34:46;;;;;;;;;;;6.40;99.90;;;;;;5026419;28;20000;-70
2022/11/24 00:37:13;;;;;;;;;;;6.40;99.90;;;;;;5034730;28;19988;-69
2022/11/24 00:39:39;;;;;;;;;;;6.40;99.90;;;;;;5046469;28;19987;-69
2022/11/24 00:42:06;;;;;;;;;;;6.40;99.90;;;;;;5046407;28;19987;-69
2022/11/24 00:44:32;;;;;;;;;;;6.40;99.90;;;;;;5046092;28;19952;-68
2022/11/24 00:46:59;;;;;;;;;;;6.50;99.90;;;;;;5045784;28;20156;-70
2022/11/24 00:49:27;;;;;;;;;;;6.40;99.90;;;;;;5045893;28;19964;-69
2022/11/24 00:51:54;;;;;;;;;;;6.40;99.90;;;;;;5046136;28;19988;-69
2022/11/24 00:54:20;;;;;;;;;;;6.40;99.90;;;;;;5046173;28;19987;-70
2022/11/24 00:56:47;;;;;;;;;;;6.50;99.90;;;;;;5045759;28;19963;-69
2022/11/24 00:59:14;;;;;;;;;;;6.50;99.90;;;;;;5046169;28;19963;-70
2022/11/24 01:01:41;;;;;;;;;;;6.50;99.90;;;;;;5046090;28;19974;-69
2022/11/24 01:04:07;;;;;;;;;;;6.50;99.90;;;;;;5045962;28;19944;-69
2022/11/24 01:06:35;;;;;;;;;;;6.50;99.90;;;;;;5045447;28;20259;-69
2022/11/24 01:09:02;;;;;;;;;;;6.50;99.90;;;;;;5045781;28;19921;-70
2022/11/24 01:11:59;;;;;;;;;;;6.60;99.90;;;;;;5045903;28;19992;-70
2022/11/24 01:14:17;;;;;;;;;;;6.60;99.90;;;;;;5045468;28;19921;-69
2022/11/24 01:16:43;;;;;;;;;;;6.60;99.90;;;;;;5045531;28;19984;-69
2022/11/24 01:19:10;;;;;;;;;;;6.60;99.90;;;;;;5045850;28;19988;-69
2022/11/24 01:21:38;;;;;;;;;;;6.60;99.90;;;;;;5045792;28;20116;-69
2022/11/24 01:24:05;;;;;;;;;;;6.60;99.90;;;;;;5045531;28;19975;-69
2022/11/24 01:26:31;;;;;;;;;;;6.60;99.90;;;;;;5044026;28;19928;-69
2022/11/24 01:28:58;;;;;;;;;;;6.70;99.90;;;;;;5045267;28;19989;-69
2022/11/24 01:31:26;;;;;;;;;;;6.70;99.90;;;;;;5045089;28;19996;-69
2022/11/24 01:33:53;;;;;;;;;;;6.70;99.90;;;;;;5045180;28;19964;-69
2022/11/24 01:36:20;;;;;;;;;;;6.70;99.90;;;;;;5045109;28;20511;-69
2022/11/24 01:38:48;;;;;;;;;;;6.70;99.90;;;;;;5045338;28;19987;-69
2022/11/24 01:41:16;;;;;;;;;;;6.70;99.90;;;;;;5045298;28;19952;-69
2022/11/24 01:43:44;;;;;;;;;;;6.70;99.90;;;;;;5044222;28;20168;-69
2022/11/24 01:46:15;;;;;;;;;;;6.70;99.90;;;;;;5044792;28;20164;-70
2022/11/24 01:48:43;;;;;;;;;;;6.70;99.90;;;;;;5045106;28;19984;-69
2022/11/24 01:51:12;;;;;;;;;;;6.70;99.90;;;;;;5045013;28;19921;-69
2022/11/24 01:53:41;;;;;;;;;;;6.70;99.90;;;;;;5043786;28;20163;-69
2022/11/24 01:56:10;;;;;;;;;;;6.80;99.90;;;;;;5044435;28;19989;-69
2022/11/24 01:58:37;;;;;;;;;;;6.80;99.90;;;;;;5044634;28;19988;-69
2022/11/24 02:01:04;;;;;;;;;;;6.80;99.90;;;;;;5044954;28;19963;-69
2022/11/24 02:03:34;;;;;;;;;;;6.80;99.90;;;;;;5044796;28;19921;-70
2022/11/24 02:06:02;;;;;;;;;;;6.80;99.90;;;;;;5044433;28;20249;-69
2022/11/24 02:08:32;;;;;;;;;;;6.70;99.90;;;;;;5044396;28;19940;-69
2022/11/24 02:11:00;;;;;;;;;;;6.80;99.90;;;;;;5044653;28;20004;-70
2022/11/24 02:13:29;;;;;;;;;;;6.70;99.90;;;;;;5044646;28;20161;-69
2022/11/24 02:15:55;;;;;;;;;;;6.70;99.90;;;;;;5044339;28;19955;-69
2022/11/24 02:18:22;;;;;;;;;;;6.70;99.90;;;;;;5044543;28;19988;-69
2022/11/24 02:20:48;;;;;;;;;;;6.60;99.90;;;;;;5044446;28;19959;-69
2022/11/24 02:23:18;;;;;;;;;;;6.60;99.90;;;;;;5044594;28;19952;-69
2022/11/24 02:25:50;;;;;;;;;;;6.60;99.90;;;;;;5043992;28;19988;-69
2022/11/24 02:28:19;;;;;;;;;;;6.60;99.90;;;;;;5044377;28;19921;-70
2022/11/24 02:30:45;;;;;;;;;;;6.70;99.90;;;;;;5044296;28;19961;-70
2022/11/24 02:33:12;;;;;;;;;;;6.70;99.90;;;;;;5044337;28;19986;-69
2022/11/24 02:35:39;;;;;;;;;;;6.70;99.90;;;;;;5043948;28;19959;-69
2022/11/24 02:38:06;;;;;;;;;;;6.70;99.90;;;;;;5043846;28;19988;-70
2022/11/24 02:40:33;;;;;;;;;;;6.80;99.90;;;;;;5044056;28;19921;-69
2022/11/24 02:43:02;;;;;;;;;;;6.80;99.90;;;;;;5043941;28;20228;-70
2022/11/24 02:45:31;;;;;;;;;;;6.70;99.90;;;;;;5043959;28;20167;-70
2022/11/24 02:47:57;;;;;;;;;;;6.70;99.90;;;;;;5043592;28;19968;-70
2022/11/24 02:50:24;;;;;;;;;;;6.70;99.90;;;;;;5043680;28;19963;-69
2022/11/24 02:52:51;;;;;;;;;;;6.80;99.90;;;;;;5044082;28;19999;-69
2022/11/24 02:55:17;;;;;;;;;;;6.90;99.90;;;;;;5043749;28;19957;-70
2022/11/24 02:57:44;;;;;;;;;;;6.90;99.90;;;;;;5043898;28;19989;-69
2022/11/24 03:00:11;;;;;;;;;;;6.90;99.90;;;;;;5043876;28;19964;-69
2022/11/24 03:02:40;;;;;;;;;;;7.00;99.90;;;;;;5043965;28;19921;-70
2022/11/24 03:05:06;;;;;;;;;;;7.10;99.90;;;;;;5043703;28;20336;-70
2022/11/24 03:07:33;;;;;;;;;;;7.10;99.90;;;;;;5043472;28;20175;-69
2022/11/24 03:10:00;;;;;;;;;;;7.10;99.90;;;;;;5043840;28;19959;-69
2022/11/24 03:12:26;;;;;;;;;;;7.20;99.90;;;;;;5043591;28;19929;-69
2022/11/24 03:14:53;;;;;;;;;;;7.20;99.90;;;;;;5043564;28;19959;-69
2022/11/24 03:17:19;;;;;;;;;;;7.20;99.90;;;;;;5043612;28;19956;-70
2022/11/24 03:19:47;;;;;;;;;;;7.20;99.90;;;;;;5043585;28;19921;-69
2022/11/24 03:22:15;;;;;;;;;;;7.20;99.90;;;;;;5043479;28;20264;-69
2022/11/24 03:24:41;;;;;;;;;;;7.20;99.90;;;;;;5043040;28;19988;-70
2022/11/24 03:27:08;;;;;;;;;;;7.20;99.90;;;;;;5043528;28;19993;-69
2022/11/24 03:29:35;;;;;;;;;;;7.20;99.90;;;;;;5043708;28;19992;-69
2022/11/24 03:32:01;;;;;;;;;;;7.20;99.90;;;;;;5043231;28;20232;-69
2022/11/24 03:34:28;;;;;;;;;;;7.20;99.90;;;;;;5043554;28;20093;-70
2022/11/24 03:36:56;;;;;;;;;;;7.30;99.90;;;;;;5043128;28;19988;-70
2022/11/24 03:39:23;;;;;;;;;;;7.30;99.90;;;;;;5043589;28;19925;-69
2022/11/24 03:41:50;;;;;;;;;;;7.30;99.90;;;;;;5043355;28;20255;-69
2022/11/24 03:44:17;;;;;;;;;;;7.30;99.90;;;;;;5043518;28;19921;-69
2022/11/24 03:46:43;;;;;;;;;;;7.30;99.90;;;;;;5043550;28;19961;-69
2022/11/24 03:49:10;;;;;;;;;;;7.30;99.90;;;;;;5043355;28;19921;-70
2022/11/24 03:51:36;;;;;;;;;;;7.30;99.90;;;;;;5046515;28;19952;-69
2022/11/24 03:54:05;;;;;;;;;;;7.40;99.90;;;;;;5047238;28;20120;-70
2022/11/24 03:56:32;;;;;;;;;;;7.30;99.90;;;;;;5046592;28;19929;-70
2022/11/24 03:58:58;;;;;;;;;;;7.30;99.90;;;;;;5046816;28;19997;-69
2022/11/24 04:01:25;;;;;;;;;;;7.40;99.90;;;;;;5046771;28;20141;-69
2022/11/24 04:03:51;;;;;;;;;;;7.30;99.90;;;;;;5047100;28;19964;-70
2022/11/24 04:06:18;;;;;;;;;;;7.30;99.90;;;;;;5046757;28;19985;-69
2022/11/24 04:08:45;;;;;;;;;;;7.40;99.90;;;;;;5046665;28;20284;-69
2022/11/24 04:12:42;;;;;;;;;;;7.40;99.90;;;;;;5046504;28;20005;-69
2022/11/24 04:13:59;;;;;;;;;;;7.40;99.90;;;;;;5046524;28;19921;-69
2022/11/24 04:16:25;;;;;;;;;;;7.40;99.90;;;;;;5046065;28;19959;-70
2022/11/24 04:18:52;;;;;;;;;;;7.40;99.90;;;;;;5046847;28;19988;-70
2022/11/24 04:21:19;;;;;;;;;;;7.40;99.90;;;;;;5046402;28;20260;-71
2022/11/24 04:23:46;;;;;;;;;;;7.40;99.90;;;;;;5046834;28;19952;-70
2022/11/24 04:26:14;;;;;;;;;;;7.40;99.90;;;;;;5046215;28;20158;-70
2022/11/24 04:28:40;;;;;;;;;;;7.40;99.90;;;;;;5046656;28;20167;-70
2022/11/24 04:31:07;;;;;;;;;;;7.30;99.90;;;;;;5046176;28;19952;-69
2022/11/24 04:33:33;;;;;;;;;;;7.40;99.90;;;;;;5046506;28;19992;-70
2022/11/24 04:36:00;;;;;;;;;;;7.30;99.90;;;;;;5046155;28;20163;-69
2022/11/24 04:38:27;;;;;;;;;;;7.30;99.90;;;;;;5046439;28;19992;-70
2022/11/24 04:40:53;;;;;;;;;;;7.30;99.90;;;;;;5046492;28;19992;-70
2022/11/24 04:43:21;;;;;;;;;;;7.30;99.90;;;;;;5046084;28;19991;-69
2022/11/24 04:45:48;;;;;;;;;;;7.30;99.90;;;;;;5045947;28;19921;-69
2022/11/24 04:48:14;;;;;;;;;;;7.20;99.90;;;;;;5045674;28;19927;-69
2022/11/24 04:50:41;;;;;;;;;;;7.20;99.90;;;;;;5045624;28;19928;-69
2022/11/24 04:53:08;;;;;;;;;;;7.20;99.90;;;;;;5046096;28;19952;-69
2022/11/24 04:55:37;;;;;;;;;;;7.10;99.90;;;;;;5045721;28;19992;-69
2022/11/24 04:58:04;;;;;;;;;;;7.10;99.90;;;;;;5046044;28;19959;-70
2022/11/24 05:00:32;;;;;;;;;;;7.00;99.90;;;;;;5045907;28;19988;-70
2022/11/24 05:02:59;;;;;;;;;;;7.00;99.90;;;;;;5046004;28;19988;-70
2022/11/24 05:05:25;;;;;;;;;;;6.90;99.90;;;;;;5054787;23;19985;-92
2022/11/24 05:07:52;;;;;;;;;;;7.00;99.90;;;;;;5060278;28;19933;-92
2022/11/24 05:10:37;;;;;;;;;;;7.50;99.90;;;;;;5060016;28;19909;-90
2022/11/24 05:13:05;;;;;;;;;;;8.10;99.90;;;;;;5060135;28;19944;-91
2022/11/24 05:15:34;;;;;;;;;;;7.80;99.90;;;;;;5059797;28;19935;-91
2022/11/24 05:18:03;;;;;;;;;;;6.90;99.90;;;;;;5060292;28;19913;-92
2022/11/24 05:20:30;;;;;;;;;;;6.80;99.90;;;;;;5059619;28;19932;-92
2022/11/24 05:23:00;;;;;;;;;;;6.80;99.90;;;;;;5059361;28;19963;-89
2022/11/24 05:25:30;;;;;;;;;;;7.30;99.90;;;;;;5059427;28;19913;-91
2022/11/24 05:27:59;;;;;;;;;;;7.30;99.90;;;;;;5059394;28;19944;-90
2022/11/24 05:30:25;;;;;;;;;;;6.70;99.90;;;;;;5058831;28;19945;-91
2022/11/24 05:32:53;;;;;;;;;;;6.80;99.90;;;;;;5054037;28;19952;-90
2022/11/24 05:35:20;;;;;;;;;;;6.70;99.90;;;;;;5050433;28;19968;-91
2022/11/24 05:37:47;;;;;;;;;;;6.70;99.90;;;;;;5048142;28;19921;-90
2022/11/24 05:40:14;;;;;;;;;;;6.70;99.90;;;;;;5057474;28;19952;-93
2022/11/24 05:42:41;;;;;;;;;;;6.60;99.90;;;;;;5059635;28;19913;-92
2022/11/24 05:45:10;;;;;;;;;;;6.60;99.90;;;;;;5059136;28;19909;-92
2022/11/24 05:47:37;;;;;;;;;;;6.60;99.90;;;;;;5059088;28;20022;-92
2022/11/24 05:50:06;;;;;;;;;;;6.60;99.90;;;;;;5059475;28;19921;-91
2022/11/24 05:52:33;;;;;;;;;;;6.60;99.90;;;;;;5059376;28;19909;-91
2022/11/24 05:55:00;;;;;;;;;;;7.20;99.90;;;;;;5058748;28;19921;-92
2022/11/24 05:57:26;;;;;;;;;;;6.60;99.90;;;;;;5059215;28;19916;-92
2022/11/24 05:59:53;;;;;;;;;;;7.00;99.90;;;;;;5058897;28;19913;-91
2022/11/24 06:02:20;;;;;;;;;;;7.00;99.90;;;;;;5059270;28;19985;-92
2022/11/24 06:04:47;;;;;;;;;;;6.50;99.90;;;;;;5058674;28;19929;-92
2022/11/24 06:07:16;;;;;;;;;;;6.50;99.90;;;;;;5058670;28;19913;-92
2022/11/24 06:09:44;;;;;;;;;;;6.50;99.90;;;;;;5059261;28;19921;-91
2022/11/24 06:12:12;;;;;;;;;;;6.50;99.90;;;;;;5058446;28;19913;-92
2022/11/24 06:14:42;;;;;;;;;;;6.00;99.90;;;;;;5058179;28;19913;-93
2022/11/24 06:17:09;;;;;;;;;;;6.60;99.90;;;;;;5057934;28;20274;-90
2022/11/24 06:19:36;;;;;;;;;;;7.80;99.90;;;;;;5054034;28;19921;-91
2022/11/24 06:22:03;;;;;;;;;;;6.30;99.90;;;;;;5053887;28;19921;-90
2022/11/24 06:24:31;;;;;;;;;;;7.30;99.90;;;;;;5053521;28;19921;-91
2022/11/24 06:26:58;;;;;;;;;;;6.80;99.90;;;;;;5050277;28;19944;-89
2022/11/24 06:29:25;;;;;;;;;;;6.40;99.90;;;;;;5054868;28;19921;-90
2022/11/24 06:31:52;;;;;;;;;;;6.40;99.90;;;;;;5057835;28;19921;-90
2022/11/24 06:34:18;;;;;;;;;;;6.40;99.90;;;;;;5056505;28;19977;-90
2022/11/24 06:36:45;;;;;;;;;;;6.40;99.90;;;;;;5056642;28;19955;-90
2022/11/24 06:39:12;;;;;;;;;;;6.50;99.90;;;;;;5055481;28;19927;-90
2022/11/24 06:41:40;;;;;;;;;;;6.60;99.90;;;;;;5054132;28;19979;-90
2022/11/24 06:44:07;;;;;;;;;;;6.50;99.90;;;;;;5053886;28;20208;-90
2022/11/24 06:46:34;;;;;;;;;;;6.50;99.90;;;;;;5053271;28;19940;-90
2022/11/24 06:49:01;;;;;;;;;;;6.50;99.90;;;;;;5054086;28;19950;-90
2022/11/24 06:51:28;;;;;;;;;;;6.50;99.90;;;;;;5054249;28;19967;-90
2022/11/24 06:53:54;;;;;;;;;;;6.40;99.90;;;;;;5055617;28;19921;-90
2022/11/24 06:56:21;;;;;;;;;;;6.50;99.90;;;;;;5054064;28;19987;-90
2022/11/24 06:58:50;;;;;;;;;;;6.40;99.90;;;;;;5054632;28;19921;-90
2022/11/24 07:01:18;;;;;;;;;;;6.50;99.90;;;;;;5054110;28;19921;-89
2022/11/24 07:03:44;;;;;;;;;;;6.40;99.90;;;;;;5053496;28;20159;-91
2022/11/24 07:06:11;;;;;;;;;;;6.40;99.90;;;;;;5053400;28;19940;-90
2022/11/24 07:08:38;;;;;;;;;;;6.40;99.90;;;;;;5054021;28;19921;-90
2022/11/24 07:11:06;;;;;;;;;;;6.40;99.90;;;;;;5053390;28;19921;-90
2022/11/24 07:13:32;;;;;;;;;;;6.40;99.90;;;;;;5053544;28;19927;-91
2022/11/24 07:16:01;;;;;;;;;;;6.50;99.90;;;;;;5052992;28;19928;-90
2022/11/24 07:18:27;;;;;;;;;;;6.50;99.90;;;;;;5053724;28;19932;-90
2022/11/24 07:20:54;;;;;;;;;;;6.50;99.90;;;;;;5052581;28;19922;-90
2022/11/24 07:23:21;;;;;;;;;;;6.40;99.90;;;;;;5053784;28;19952;-90
2022/11/24 07:25:48;;;;;;;;;;;6.40;99.90;;;;;;5054666;28;20336;-89
2022/11/24 07:28:15;;;;;;;;;;;6.40;99.90;;;;;;5056874;28;19976;-89
2022/11/24 07:30:41;;;;;;;;;;;6.50;99.90;;;;;;5057886;28;19951;-91
2022/11/24 07:33:10;;;;;;;;;;;6.40;99.90;;;;;;5057786;28;19955;-91
2022/11/24 07:35:36;;;;;;;;;;;6.40;99.90;;;;;;5058219;28;19921;-90
2022/11/24 07:38:03;;;;;;;;;;;6.50;99.90;;;;;;5058089;28;19921;-91
2022/11/24 07:40:30;;;;;;;;;;;6.50;99.90;;;;;;5059897;28;19943;-91
2022/11/24 07:42:59;;;;;;;;;;;6.50;99.90;;;;;;5061200;28;19925;-91
2022/11/24 07:45:26;;;;;;;;;;;6.50;99.90;;;;;;5061397;28;19928;-92
2022/11/24 07:47:53;;;;;;;;;;;6.50;99.90;;;;;;5061544;28;19921;-91
2022/11/24 07:50:21;;;;;;;;;;;6.30;99.90;;;;;;5061611;28;19996;-91
2022/11/24 07:52:48;;;;;;;;;;;6.50;99.90;;;;;;5061629;28;19940;-91
2022/11/24 07:55:14;;;;;;;;;;;6.60;99.90;;;;;;5061044;28;19921;-91
2022/11/24 07:57:41;;;;;;;;;;;6.60;99.90;;;;;;5060852;28;19913;-91
2022/11/24 08:00:08;;;;;;;;;;;6.60;99.90;;;;;;5061077;28;19936;-90
2022/11/24 08:02:35;;;;;;;;;;;6.70;99.90;;;;;;5060506;28;19917;-91
2022/11/24 08:05:02;;;;;;;;;;;6.70;99.90;;;;;;5060177;28;19964;-90
2022/11/24 08:07:30;;;;;;;;;;;6.80;99.90;;;;;;5060352;28;20041;-90
2022/11/24 08:09:57;;;;;;;;;;;6.80;99.90;;;;;;5060533;28;19932;-91
2022/11/24 08:12:23;;;;;;;;;;;6.80;99.90;;;;;;5060513;28;19933;-91
2022/11/24 08:14:51;;;;;;;;;;;6.90;99.90;;;;;;5060117;28;19913;-91
2022/11/24 08:17:17;;;;;;;;;;;6.90;99.90;;;;;;5060919;28;19944;-91
2022/11/24 08:19:44;;;;;;;;;;;6.90;99.90;;;;;;5060699;28;19932;-92
2022/11/24 08:22:11;;;;;;;;;;;7.00;99.90;;;;;;5060711;28;19941;-93
2022/11/24 08:27:07;;;;;;;;;;;7.00;99.90;;;;;;5024177;28;19921;-69
2022/11/24 08:29:33;;;;;;;;;;;7.10;99.90;;;;;;5026823;28;19959;-70
2022/11/24 08:32:00;;;;;;;;;;;7.10;99.90;;;;;;5026330;28;20264;-69
2022/11/24 08:34:26;;;;;;;;;;;7.10;99.90;;;;;;5026562;28;19988;-69
2022/11/24 08:37:00;;;;;;;;;;;7.20;99.90;;;;;;5025004;28;19984;-66
2022/11/24 08:39:27;;;;;;;;;;;7.20;99.90;;;;;;5026655;28;20145;-67
2022/11/24 08:41:54;;;;;;;;;;;7.20;99.90;;;;;;5026520;28;19922;-67
2022/11/24 08:44:22;;;;;;;;;;;7.20;99.90;;;;;;5026100;28;19988;-67
2022/11/24 08:46:49;;;;;;;;;;;7.20;99.90;;;;;;5026003;28;19952;-67
2022/11/24 08:49:17;;;;;;;;;;;7.10;99.90;;;;;;5025946;28;19929;-67
2022/11/24 08:51:45;;;;;;;;;;;7.10;99.90;;;;;;5026189;28;19929;-67
2022/11/24 08:54:14;;;;;;;;;;;7.10;99.90;;;;;;5025886;28;20238;-67
2022/11/24 08:56:41;;;;;;;;;;;7.20;99.90;;;;;;5026034;28;19949;-67
2022/11/24 08:59:07;;;;;;;;;;;7.20;99.90;;;;;;5026202;28;19944;-67
2022/11/24 09:01:35;;;;;;;;;;;7.20;99.90;;;;;;5026113;28;19971;-67
2022/11/24 09:04:02;;;;;;;;;;;7.20;99.90;;;;;;5025732;28;20232;-67
2022/11/24 09:06:30;;;;;;;;;;;7.10;99.90;;;;;;5025733;28;19957;-68
2022/11/24 09:08:57;;;;;;;;;;;7.10;99.90;;;;;;5025959;28;19929;-67
2022/11/24 09:11:25;;;;;;;;;;;7.10;99.90;;;;;;5025179;28;19953;-67
2022/11/24 09:13:52;;;;;;;;;;;7.10;99.90;;;;;;5025669;28;20232;-67
2022/11/24 09:16:20;;;;;;;;;;;7.00;99.90;;;;;;5025567;28;19971;-67
2022/11/24 09:18:48;;;;;;;;;;;7.00;99.90;;;;;;5025619;28;20296;-67
2022/11/24 09:21:16;;;;;;;;;;;7.00;99.90;;;;;;5025508;28;20244;-67
2022/11/24 09:23:43;;;;;;;;;;;7.00;99.90;;;;;;5025266;28;19922;-68
2022/11/24 09:26:10;;;;;;;;;;;7.00;99.90;;;;;;5025015;28;19984;-67
2022/11/24 09:28:37;;;;;;;;;;;6.90;99.90;;;;;;5025514;28;20288;-67
2022/11/24 09:31:04;;;;;;;;;;;6.90;99.90;;;;;;5025651;28;19988;-67
2022/11/24 09:33:31;;;;;;;;;;;6.80;99.90;;;;;;5025117;28;19983;-67
2022/11/24 09:35:59;;;;;;;;;;;6.80;99.90;;;;;;5024770;28;20232;-68
2022/11/24 09:38:26;;;;;;;;;;;6.70;99.90;;;;;;5025506;28;20145;-67
2022/11/24 09:40:53;;;;;;;;;;;6.80;99.90;;;;;;5025125;28;20284;-67
2022/11/24 09:43:24;;;;;;;;;;;6.80;99.90;;;;;;5025140;28;20219;-67
2022/11/24 09:45:55;;;;;;;;;;;6.80;99.90;;;;;;5024522;28;19980;-67
2022/11/24 09:48:23;;;;;;;;;;;6.80;99.90;;;;;;5023861;28;19957;-67
2022/11/24 09:50:52;;;;;;;;;;;6.90;99.90;;;;;;5025316;28;19922;-67
2022/11/24 09:53:24;;;;;;;;;;;6.90;99.90;;;;;;5024919;28;20271;-67
2022/11/24 09:55:52;;;;;;;;;;;6.90;99.90;;;;;;5024596;28;20267;-67
2022/11/24 09:58:24;;;;;;;;;;;7.00;99.90;;;;;;5025228;28;19996;-69
2022/11/24 10:00:52;;;;;;;;;;;7.00;99.90;;;;;;5025314;28;19957;-67
2022/11/24 10:03:22;;;;;;;;;;;7.00;99.90;;;;;;5025158;28;19925;-67
2022/11/24 10:05:50;;;;;;;;;;;7.00;99.90;;;;;;5022607;28;19989;-67
2022/11/24 10:08:23;;;;;;;;;;;6.90;99.90;;;;;;5018895;28;20000;-67
2022/11/24 10:10:54;;;;;;;;;;;7.00;99.90;;;;;;5004021;28;19976;-68
2022/11/24 10:13:28;;;;;;;;;;;6.90;99.90;;;;;;5007666;28;19922;-67
2022/11/24 10:15:58;;;;;;;;;;;6.90;99.90;;;;;;5024304;28;19957;-67
2022/11/24 10:18:33;;;;;;;;;;;6.90;99.90;;;;;;5023380;28;20319;-67
2022/11/24 10:21:03;;;;;;;;;;;7.00;99.90;;;;;;5005864;28;19922;-67
2022/11/24 10:23:39;;;;;;;;;;;7.00;99.90;;;;;;5005309;28;19981;-68
2022/11/24 10:26:08;;;;;;;;;;;7.00;99.90;;;;;;5015213;28;20001;-68
2022/11/24 10:28:38;;;;;;;;;;;7.00;99.90;;;;;;5024611;28;19960;-67
2022/11/24 10:31:13;;;;;;;;;;;7.00;99.90;;;;;;5009447;28;20241;-67
2022/11/24 10:33:40;;;;;;;;;;;7.10;99.90;;;;;;5024102;28;19921;-66
2022/11/24 10:36:08;;;;;;;;;;;7.10;99.90;;;;;;5006884;28;19936;-67
2022/11/24 10:38:39;;;;;;;;;;;7.10;99.90;;;;;;5005120;28;19922;-67
2022/11/24 10:41:07;;;;;;;;;;;7.10;99.90;;;;;;5004245;28;19926;-67
2022/11/24 10:43:34;;;;;;;;;;;7.10;99.90;;;;;;5022194;28;19929;-67
2022/11/24 10:46:09;;;;;;;;;;;7.20;99.90;;;;;;5022851;28;19964;-67
2022/11/24 10:48:39;;;;;;;;;;;7.10;99.90;;;;;;5021042;28;19968;-67
2022/11/24 10:51:21;;;;;;;;;;;7.20;99.90;;;;;;5007596;28;19953;-67
2022/11/24 10:53:51;;;;;;;;;;;7.20;99.90;;;;;;5004593;28;19994;-68
2022/11/24 10:56:18;;;;;;;;;;;7.30;99.90;;;;;;5020970;28;19953;-67
2022/11/24 10:58:44;;;;;;;;;;;7.30;99.90;;;;;;5023662;28;19985;-67
2022/11/24 11:01:21;;;;;;;;;;;7.30;99.90;;;;;;5014593;28;19962;-67
2022/11/24 11:03:49;;;;;;;;;;;7.40;99.90;;;;;;5004303;28;19941;-67
2022/11/24 11:06:20;;;;;;;;;;;7.40;99.90;;;;;;5004729;28;20152;-67
2022/11/24 11:08:48;;;;;;;;;;;7.50;99.90;;;;;;5005062;28;19961;-67
2022/11/24 11:11:19;;;;;;;;;;;7.50;99.90;;;;;;5003441;28;19929;-67
2022/11/24 11:13:54;;;;;;;;;;;7.60;99.90;;;;;;5019946;28;19921;-67
2022/11/24 11:16:32;;;;;;;;;;;7.50;99.90;;;;;;5023717;28;20120;-67
2022/11/24 11:19:02;;;;;;;;;;;7.60;99.90;;;;;;5008194;28;19922;-67
2022/11/24 11:21:32;;;;;;;;;;;7.60;99.90;;;;;;5004308;28;19928;-67
2022/11/24 11:24:00;;;;;;;;;;;7.50;99.90;;;;;;5012061;28;19993;-67
2022/11/24 11:26:31;;;;;;;;;;;7.50;99.90;;;;;;5003599;28;19949;-67
2022/11/24 11:29:00;;;;;;;;;;;7.50;99.90;;;;;;5004259;28;19925;-67
2022/11/24 11:31:27;;;;;;;;;;;7.50;99.90;;;;;;5023978;28;19929;-67
2022/11/24 11:33:55;;;;;;;;;;;7.50;99.90;;;;;;5013402;28;19997;-67
2022/11/24 11:36:21;;;;;;;;;;;7.60;99.90;;;;;;5015183;28;19949;-67
2022/11/24 11:38:48;;;;;;;;;;;7.60;99.90;;;;;;5009051;28;19989;-68
2022/11/24 11:41:20;;;;;;;;;;;7.60;99.90;;;;;;5019902;28;19953;-67
2022/11/24 11:43:50;;;;;;;;;;;7.70;99.90;;;;;;5003876;28;19996;-68
2022/11/24 11:46:16;;;;;;;;;;;7.70;99.90;;;;;;5003585;28;19957;-67
2022/11/24 11:48:45;;;;;;;;;;;7.80;99.90;;;;;;5020472;28;19987;-67
2022/11/24 11:51:35;;;;;;;;;;;7.90;99.90;;;;;;5023554;28;19921;-68
2022/11/24 11:54:06;;;;;;;;;;;8.10;99.90;;;;;;5011185;28;19964;-68
2022/11/24 11:56:43;;;;;;;;;;;8.30;99.90;;;;;;5003292;28;19945;-67
2022/11/24 11:59:16;;;;;;;;;;;8.30;99.90;;;;;;5009492;28;20296;-67
2022/11/24 12:01:51;;;;;;;;;;;8.20;99.90;;;;;;5023080;28;20176;-68
2022/11/24 12:04:21;;;;;;;;;;;8.20;99.90;;;;;;5023439;28;20172;-68
2022/11/24 12:06:55;;;;;;;;;;;8.20;99.90;;;;;;5018817;28;20558;-68
2022/11/24 12:09:32;;;;;;;;;;;8.20;99.90;;;;;;5003081;28;19985;-68
2022/11/24 12:12:09;;;;;;;;;;;8.40;99.90;;;;;;5019260;28;19953;-68
2022/11/24 12:14:40;;;;;;;;;;;8.50;99.90;;;;;;5026436;28;20315;-68
2022/11/24 12:17:09;;;;;;;;;;;8.40;99.90;;;;;;5018743;28;19953;-68
2022/11/24 12:19:49;;;;;;;;;;;8.40;99.90;;;;;;5007094;28;19988;-68
2022/11/24 12:22:20;;;;;;;;;;;8.30;99.90;;;;;;5018701;28;20237;-68
2022/11/24 12:24:50;;;;;;;;;;;8.30;99.90;;;;;;5008407;28;19981;-69
2022/11/24 12:27:19;;;;;;;;;;;8.20;99.90;;;;;;5006756;28;19922;-68
2022/11/24 12:29:59;;;;;;;;;;;8.20;99.90;;;;;;5017541;28;19953;-68
2022/11/24 12:32:32;;;;;;;;;;;8.30;99.90;;;;;;5026615;28;19990;-69
2022/11/24 12:35:03;;;;;;;;;;;8.20;99.90;;;;;;5021561;28;19990;-68
2022/11/24 12:37:39;;;;;;;;;;;8.10;99.90;;;;;;5014879;28;20260;-67
2022/11/24 12:40:13;;;;;;;;;;;8.10;99.90;;;;;;5026576;28;20179;-69
2022/11/24 12:42:44;;;;;;;;;;;8.10;99.90;;;;;;5006856;28;19922;-68
2022/11/24 12:45:14;;;;;;;;;;;8.10;99.90;;;;;;5006423;28;19922;-68
2022/11/24 12:47:48;;;;;;;;;;;8.00;99.90;;;;;;5018366;28;19988;-68
2022/11/24 12:50:17;;;;;;;;;;;8.00;99.90;;;;;;5026506;28;19996;-67
2022/11/24 12:52:46;;;;;;;;;;;8.00;99.90;;;;;;5020644;28;19990;-68
2022/11/24 12:55:15;;;;;;;;;;;8.00;99.90;;;;;;5005846;28;20175;-70
2022/11/24 12:57:44;;;;;;;;;;;8.00;99.90;;;;;;5006608;28;20124;-67
2022/11/24 13:00:16;;;;;;;;;;;8.00;99.90;;;;;;5006573;28;19993;-68
2022/11/24 13:02:50;;;;;;;;;;;8.10;99.90;;;;;;5006450;28;19954;-68
2022/11/24 13:05:21;;;;;;;;;;;8.20;99.90;;;;;;5011934;28;19922;-68
2022/11/24 13:07:49;;;;;;;;;;;8.30;99.90;;;;;;5015736;28;19949;-67
2022/11/24 13:10:27;;;;;;;;;;;8.30;99.90;;;;;;5013678;28;20007;-67
2022/11/24 13:12:54;;;;;;;;;;;8.30;99.90;;;;;;5006394;28;19933;-67
2022/11/24 13:15:22;;;;;;;;;;;8.30;99.90;;;;;;5005907;28;19989;-67
2022/11/24 13:17:49;;;;;;;;;;;8.20;99.90;;;;;;5023347;28;19989;-68
2022/11/24 13:20:20;;;;;;;;;;;8.20;99.90;;;;;;5020558;28;19953;-67
2022/11/24 13:22:48;;;;;;;;;;;8.40;99.90;;;;;;5016211;28;19953;-67
2022/11/24 13:25:17;;;;;;;;;;;8.60;99.90;;;;;;5025301;28;19922;-67
2022/11/24 13:27:48;;;;;;;;;;;8.80;99.90;;;;;;5018166;28;19989;-68
2022/11/24 13:30:33;;;;;;;;;;;8.70;99.90;;;;;;5006271;28;19921;-67
2022/11/24 13:33:02;;;;;;;;;;;8.60;99.90;;;;;;5018066;28;19988;-68
2022/11/24 13:35:29;;;;;;;;;;;8.40;99.90;;;;;;5024982;28;19963;-67
2022/11/24 13:37:55;;;;;;;;;;;8.30;99.90;;;;;;5024913;28;20165;-68
2022/11/24 13:40:38;;;;;;;;;;;8.20;99.90;;;;;;5011731;28;19985;-67
2022/11/24 13:43:22;;;;;;;;;;;8.20;99.90;;;;;;5005769;28;19993;-67
2022/11/24 13:45:49;;;;;;;;;;;8.10;99.90;;;;;;5015242;28;19921;-69
2022/11/24 13:48:31;;;;;;;;;;;8.10;99.90;;;;;;5014927;28;19922;-68
2022/11/24 13:51:18;;;;;;;;;;;8.10;99.90;;;;;;5009007;28;19956;-68
2022/11/24 13:53:46;;;;;;;;;;;8.10;99.90;;;;;;5025006;28;19997;-68
2022/11/24 13:56:21;;;;;;;;;;;8.10;99.90;;;;;;5024569;28;19923;-67
2022/11/24 13:58:48;;;;;;;;;;;8.10;99.90;;;;;;5023715;28;19992;-68
2022/11/24 14:01:17;;;;;;;;;;;8.00;99.90;;;;;;5024180;28;19921;-68
2022/11/24 14:03:55;;;;;;;;;;;8.00;99.90;;;;;;5024894;28;19984;-68
2022/11/24 14:06:26;;;;;;;;;;;7.90;99.90;;;;;;5023774;28;19992;-68
2022/11/24 14:08:54;;;;;;;;;;;8.00;99.90;;;;;;5024552;28;19953;-68
2022/11/24 14:11:20;;;;;;;;;;;8.00;99.90;;;;;;5024481;28;19971;-67
2022/11/24 14:13:47;;;;;;;;;;;8.00;99.90;;;;;;5024257;28;20049;-69
2022/11/24 14:16:15;;;;;;;;;;;8.00;99.90;;;;;;5024101;28;20229;-69
2022/11/24 14:18:43;;;;;;;;;;;8.00;99.90;;;;;;5024438;28;20061;-69
2022/11/24 14:21:22;;;;;;;;;;;8.00;99.90;;;;;;5024594;28;20158;-69
2022/11/24 14:23:51;;;;;;;;;;;8.00;99.90;;;;;;5024629;28;19922;-68
2022/11/24 14:26:21;;;;;;;;;;;8.00;99.90;;;;;;5023191;28;20390;-67
2022/11/24 14:28:48;;;;;;;;;;;8.00;99.90;;;;;;5024213;28;19989;-67
2022/11/24 14:31:19;;;;;;;;;;;8.00;99.90;;;;;;5016824;28;20017;-67
2022/11/24 14:33:46;;;;;;;;;;;7.90;99.90;;;;;;5004092;28;19976;-68
2022/11/24 14:36:14;;;;;;;;;;;7.90;99.90;;;;;;5004040;28;20175;-68
2022/11/24 14:38:40;;;;;;;;;;;7.90;99.90;;;;;;5004636;28;19957;-68
2022/11/24 14:41:16;;;;;;;;;;;7.90;99.90;;;;;;5004642;28;19925;-67